EJU12Y EDDH-LFSB
Flight info
| Callsign | EJU12Y |
|---|---|
| Flight time | 1h 24m |
| Altitude | 35000 |
| Route | IDEKO7G IDEKO N850 NIE DCT OTMON/N0451F340 DCT SWALM DCT OMOGI/N0454F350 T721 SUNEG T715 RIGVI |
| Aircraft | A320/M-SDE3FGHIRWY/LB1 |
Departure
| Time | 2026-05-06 15:32 |
|---|---|
| Airport | Hamburg Helmut Schmidt Airport (EDDH) |
Arrival
| Time | 2026-05-06 16:56 |
|---|---|
| Airport | EuroAirport Basel–Mulhouse–Freiburg (LFSB) |
| Time | Latitude | Longitude | Altitude | Speed | Heading |
|---|---|---|---|---|---|
| 2026-05-06 14:53 | 53.63206 | 10.00369 | 49 ft | 0 kts | 86° |
| 2026-05-06 15:23 | 53.63205 | 10.00336 | 48 ft | 4 kts | 86° |
| 2026-05-06 15:23 | 53.63203 | 10.00291 | 48 ft | 3 kts | 86° |
| 2026-05-06 15:23 | 53.63204 | 10.00254 | 48 ft | 4 kts | 118° |
| 2026-05-06 15:23 | 53.63221 | 10.00234 | 48 ft | 4 kts | 182° |
| 2026-05-06 15:24 | 53.63247 | 10.00237 | 48 ft | 2 kts | 176° |
| 2026-05-06 15:24 | 53.63249 | 10.00237 | 48 ft | 0 kts | 175° |
| 2026-05-06 15:25 | 53.63239 | 10.00240 | 48 ft | 8 kts | 169° |
| 2026-05-06 15:26 | 53.63157 | 10.00254 | 47 ft | 13 kts | 175° |
| 2026-05-06 15:26 | 53.63065 | 10.00255 | 48 ft | 13 kts | 198° |
| 2026-05-06 15:26 | 53.62990 | 10.00178 | 47 ft | 12 kts | 213° |
| 2026-05-06 15:26 | 53.62920 | 10.00104 | 48 ft | 11 kts | 212° |
| 2026-05-06 15:27 | 53.62865 | 10.00025 | 48 ft | 10 kts | 239° |
| 2026-05-06 15:27 | 53.62842 | 9.99952 | 46 ft | 0 kts | 243° |
| 2026-05-06 15:29 | 53.62834 | 9.99924 | 47 ft | 11 kts | 243° |
| 2026-05-06 15:29 | 53.62828 | 9.99775 | 45 ft | 7 kts | 353° |
| 2026-05-06 15:30 | 53.62853 | 9.99757 | 43 ft | 0 kts | 333° |
| 2026-05-06 15:31 | 53.62902 | 9.99715 | 45 ft | 34 kts | 333° |
| 2026-05-06 15:31 | 53.63354 | 9.99325 | 47 ft | 107 kts | 331° |
| 2026-05-06 15:32 | 53.65190 | 9.97728 | 665 ft | 163 kts | 335° |
| 2026-05-06 15:32 | 53.66208 | 9.96854 | 1418 ft | 171 kts | 339° |
| 2026-05-06 15:32 | 53.67371 | 9.95890 | 1713 ft | 201 kts | 340° |
| 2026-05-06 15:32 | 53.68675 | 9.94798 | 2432 ft | 211 kts | 339° |
| 2026-05-06 15:33 | 53.69994 | 9.93668 | 3362 ft | 214 kts | 338° |
| 2026-05-06 15:33 | 53.71159 | 9.92005 | 4169 ft | 231 kts | 303° |
| 2026-05-06 15:33 | 53.71527 | 9.89295 | 4812 ft | 254 kts | 266° |
| 2026-05-06 15:33 | 53.71161 | 9.86237 | 5319 ft | 276 kts | 253° |
| 2026-05-06 15:34 | 53.70532 | 9.83121 | 6196 ft | 283 kts | 250° |
| 2026-05-06 15:34 | 53.69827 | 9.80022 | 7070 ft | 289 kts | 249° |
| 2026-05-06 15:34 | 53.69104 | 9.76846 | 8054 ft | 290 kts | 249° |
| 2026-05-06 15:34 | 53.68400 | 9.73623 | 9017 ft | 293 kts | 250° |
| 2026-05-06 15:35 | 53.67714 | 9.70344 | 9647 ft | 297 kts | 251° |
| 2026-05-06 15:35 | 53.67042 | 9.67047 | 9844 ft | 297 kts | 251° |
| 2026-05-06 15:35 | 53.66281 | 9.63730 | 9947 ft | 322 kts | 241° |
| 2026-05-06 15:35 | 53.64911 | 9.60586 | 10299 ft | 344 kts | 223° |
| 2026-05-06 15:36 | 53.62941 | 9.58237 | 10944 ft | 351 kts | 204° |
| 2026-05-06 15:36 | 53.60611 | 9.57032 | 11771 ft | 351 kts | 186° |
| 2026-05-06 15:36 | 53.58195 | 9.56536 | 12698 ft | 350 kts | 186° |
| 2026-05-06 15:36 | 53.55766 | 9.56059 | 13543 ft | 352 kts | 185° |
| 2026-05-06 15:37 | 53.53320 | 9.55585 | 14310 ft | 354 kts | 186° |
| 2026-05-06 15:37 | 53.50859 | 9.55104 | 15025 ft | 358 kts | 186° |
| 2026-05-06 15:37 | 53.48369 | 9.54612 | 15776 ft | 362 kts | 187° |
| 2026-05-06 15:37 | 53.45884 | 9.54120 | 16491 ft | 365 kts | 187° |
| 2026-05-06 15:38 | 53.43342 | 9.53616 | 17215 ft | 369 kts | 187° |
| 2026-05-06 15:38 | 53.40777 | 9.53110 | 17954 ft | 373 kts | 187° |
| 2026-05-06 15:38 | 53.38182 | 9.52601 | 18608 ft | 376 kts | 187° |
| 2026-05-06 15:38 | 53.35564 | 9.52091 | 19192 ft | 380 kts | 187° |
| 2026-05-06 15:39 | 53.32924 | 9.51576 | 19737 ft | 383 kts | 187° |
| 2026-05-06 15:39 | 53.30295 | 9.51064 | 20275 ft | 387 kts | 187° |
| 2026-05-06 15:39 | 53.27612 | 9.50541 | 20820 ft | 390 kts | 187° |
| 2026-05-06 15:39 | 53.24904 | 9.50008 | 21356 ft | 393 kts | 187° |
| 2026-05-06 15:40 | 53.22180 | 9.49468 | 21907 ft | 395 kts | 187° |
| 2026-05-06 15:40 | 53.19430 | 9.48924 | 22406 ft | 399 kts | 187° |
| 2026-05-06 15:40 | 53.16652 | 9.48384 | 22867 ft | 403 kts | 187° |
| 2026-05-06 15:40 | 53.13851 | 9.47845 | 23412 ft | 406 kts | 186° |
| 2026-05-06 15:41 | 53.11987 | 9.47486 | 23687 ft | 408 kts | 186° |
| 2026-05-06 15:41 | 53.08237 | 9.46760 | 24284 ft | 410 kts | 186° |
| 2026-05-06 15:41 | 53.05385 | 9.46207 | 24690 ft | 413 kts | 186° |
| 2026-05-06 15:41 | 53.02513 | 9.45651 | 25109 ft | 417 kts | 186° |
| 2026-05-06 15:42 | 53.00560 | 9.45274 | 25376 ft | 419 kts | 186° |
| 2026-05-06 15:42 | 52.97698 | 9.44715 | 25785 ft | 421 kts | 186° |
| 2026-05-06 15:42 | 52.94786 | 9.44110 | 26251 ft | 421 kts | 187° |
| 2026-05-06 15:42 | 52.91864 | 9.43483 | 26600 ft | 425 kts | 187° |
| 2026-05-06 15:43 | 52.88913 | 9.42837 | 26959 ft | 428 kts | 187° |
| 2026-05-06 15:43 | 52.85947 | 9.42186 | 27325 ft | 431 kts | 188° |
| 2026-05-06 15:43 | 52.82961 | 9.41538 | 27678 ft | 433 kts | 188° |
| 2026-05-06 15:43 | 52.80003 | 9.40906 | 28048 ft | 435 kts | 187° |
| 2026-05-06 15:44 | 52.76948 | 9.40259 | 28366 ft | 438 kts | 187° |
| 2026-05-06 15:44 | 52.73946 | 9.39625 | 28669 ft | 442 kts | 187° |
| 2026-05-06 15:44 | 52.70887 | 9.38978 | 29019 ft | 444 kts | 187° |
| 2026-05-06 15:44 | 52.67817 | 9.38328 | 29361 ft | 446 kts | 188° |
| 2026-05-06 15:45 | 52.64729 | 9.37673 | 29669 ft | 448 kts | 188° |
| 2026-05-06 15:45 | 52.61597 | 9.37185 | 29983 ft | 451 kts | 182° |
| 2026-05-06 15:45 | 52.58468 | 9.37105 | 30365 ft | 450 kts | 182° |
| 2026-05-06 15:45 | 52.55343 | 9.37040 | 30790 ft | 448 kts | 182° |
| 2026-05-06 15:46 | 52.52227 | 9.36979 | 31198 ft | 446 kts | 182° |
| 2026-05-06 15:46 | 52.49162 | 9.36918 | 31607 ft | 445 kts | 182° |
| 2026-05-06 15:46 | 52.46075 | 9.36858 | 32033 ft | 443 kts | 182° |
| 2026-05-06 15:46 | 52.42994 | 9.36797 | 32460 ft | 441 kts | 182° |
| 2026-05-06 15:47 | 52.39921 | 9.36735 | 32880 ft | 440 kts | 182° |
| 2026-05-06 15:47 | 52.36870 | 9.36677 | 33317 ft | 437 kts | 183° |
| 2026-05-06 15:47 | 52.33838 | 9.36617 | 33781 ft | 434 kts | 183° |
| 2026-05-06 15:47 | 52.30817 | 9.36556 | 34149 ft | 433 kts | 183° |
| 2026-05-06 15:48 | 52.27806 | 9.36492 | 34471 ft | 432 kts | 183° |
| 2026-05-06 15:48 | 52.24788 | 9.36426 | 34746 ft | 433 kts | 183° |
| 2026-05-06 15:48 | 52.18808 | 9.36292 | 34834 ft | 432 kts | 183° |
| 2026-05-06 15:49 | 52.12794 | 9.36166 | 34829 ft | 431 kts | 183° |
| 2026-05-06 15:49 | 52.06790 | 9.36041 | 34827 ft | 431 kts | 183° |
| 2026-05-06 15:50 | 52.00789 | 9.35918 | 34822 ft | 431 kts | 183° |
| 2026-05-06 15:50 | 51.94802 | 9.35783 | 34819 ft | 431 kts | 183° |
| 2026-05-06 15:51 | 51.88800 | 9.35656 | 34806 ft | 431 kts | 183° |
| 2026-05-06 15:51 | 51.82855 | 9.35544 | 34809 ft | 431 kts | 183° |
| 2026-05-06 15:52 | 51.76852 | 9.35419 | 34798 ft | 430 kts | 183° |
| 2026-05-06 15:52 | 51.70856 | 9.35292 | 34800 ft | 430 kts | 183° |
| 2026-05-06 15:53 | 51.64906 | 9.35166 | 34787 ft | 430 kts | 183° |
| 2026-05-06 15:53 | 51.58917 | 9.35042 | 34785 ft | 429 kts | 183° |
| 2026-05-06 15:54 | 51.52935 | 9.34919 | 34786 ft | 430 kts | 183° |
| 2026-05-06 15:54 | 51.46948 | 9.34803 | 34786 ft | 429 kts | 183° |
| 2026-05-06 15:55 | 51.41005 | 9.34684 | 34774 ft | 429 kts | 183° |
| 2026-05-06 15:55 | 51.35027 | 9.34561 | 34781 ft | 429 kts | 183° |
| 2026-05-06 15:56 | 51.29039 | 9.34340 | 34797 ft | 428 kts | 188° |
| 2026-05-06 15:56 | 51.23189 | 9.32960 | 34799 ft | 427 kts | 191° |
| 2026-05-06 15:57 | 51.17310 | 9.31521 | 34801 ft | 427 kts | 191° |
| 2026-05-06 15:57 | 51.11427 | 9.30092 | 34793 ft | 428 kts | 190° |
| 2026-05-06 15:58 | 51.05530 | 9.28666 | 34809 ft | 428 kts | 190° |
| 2026-05-06 15:58 | 50.99669 | 9.27249 | 34808 ft | 428 kts | 190° |
| 2026-05-06 15:59 | 50.93770 | 9.25828 | 34808 ft | 428 kts | 190° |
| 2026-05-06 15:59 | 50.87888 | 9.24414 | 34803 ft | 426 kts | 190° |
| 2026-05-06 16:00 | 50.82057 | 9.23025 | 34797 ft | 426 kts | 190° |
| 2026-05-06 16:00 | 50.76188 | 9.21630 | 34786 ft | 426 kts | 190° |
| 2026-05-06 16:01 | 50.70331 | 9.20244 | 34781 ft | 425 kts | 190° |
| 2026-05-06 16:01 | 50.64468 | 9.18983 | 34776 ft | 425 kts | 189° |
| 2026-05-06 16:02 | 50.58583 | 9.17811 | 34777 ft | 426 kts | 189° |
| 2026-05-06 16:02 | 50.52742 | 9.16629 | 34778 ft | 425 kts | 189° |
| 2026-05-06 16:03 | 50.46856 | 9.15407 | 34775 ft | 425 kts | 189° |
| 2026-05-06 16:03 | 50.41028 | 9.14200 | 34778 ft | 424 kts | 189° |
| 2026-05-06 16:04 | 50.35168 | 9.12997 | 34777 ft | 424 kts | 189° |
| 2026-05-06 16:04 | 50.29311 | 9.11801 | 34778 ft | 424 kts | 189° |
| 2026-05-06 16:05 | 50.23451 | 9.10602 | 34770 ft | 424 kts | 189° |
| 2026-05-06 16:05 | 50.17638 | 9.09411 | 34769 ft | 424 kts | 189° |
| 2026-05-06 16:06 | 50.11777 | 9.08221 | 34775 ft | 424 kts | 189° |
| 2026-05-06 16:06 | 50.05907 | 9.07029 | 34771 ft | 425 kts | 189° |
| 2026-05-06 16:07 | 50.00049 | 9.05837 | 34789 ft | 424 kts | 188° |
| 2026-05-06 16:07 | 49.94229 | 9.04665 | 34798 ft | 424 kts | 188° |
| 2026-05-06 16:08 | 49.88376 | 9.03489 | 34801 ft | 424 kts | 189° |
| 2026-05-06 16:08 | 49.82526 | 9.02313 | 34793 ft | 424 kts | 188° |
| 2026-05-06 16:09 | 49.76668 | 9.01139 | 34793 ft | 424 kts | 188° |
| 2026-05-06 16:09 | 49.70805 | 8.99957 | 34792 ft | 424 kts | 188° |
| 2026-05-06 16:10 | 49.64944 | 8.98778 | 34801 ft | 425 kts | 189° |
| 2026-05-06 16:10 | 49.59146 | 8.97310 | 34802 ft | 423 kts | 191° |
| 2026-05-06 16:11 | 49.53357 | 8.95620 | 34806 ft | 422 kts | 192° |
| 2026-05-06 16:11 | 49.47578 | 8.93948 | 34806 ft | 422 kts | 191° |
| 2026-05-06 16:12 | 49.41824 | 8.92364 | 34810 ft | 422 kts | 191° |
| 2026-05-06 16:12 | 49.36026 | 8.90809 | 34809 ft | 422 kts | 191° |
| 2026-05-06 16:13 | 49.30236 | 8.89244 | 34807 ft | 422 kts | 191° |
| 2026-05-06 16:13 | 49.24453 | 8.87672 | 34803 ft | 421 kts | 192° |
| 2026-05-06 16:14 | 49.19035 | 8.84575 | 34796 ft | 419 kts | 210° |
| 2026-05-06 16:14 | 49.14474 | 8.79018 | 34797 ft | 420 kts | 221° |
| 2026-05-06 16:15 | 49.10116 | 8.73077 | 34808 ft | 420 kts | 220° |
| 2026-05-06 16:15 | 49.05765 | 8.67203 | 34815 ft | 420 kts | 220° |
| 2026-05-06 16:16 | 49.01383 | 8.61287 | 34818 ft | 420 kts | 220° |
| 2026-05-06 16:16 | 48.96950 | 8.55523 | 34814 ft | 418 kts | 217° |
| 2026-05-06 16:17 | 48.92324 | 8.50260 | 34818 ft | 417 kts | 215° |
| 2026-05-06 16:17 | 48.87611 | 8.45096 | 34818 ft | 417 kts | 215° |
| 2026-05-06 16:18 | 48.82922 | 8.39856 | 34825 ft | 417 kts | 216° |
| 2026-05-06 16:18 | 48.78270 | 8.34570 | 34737 ft | 418 kts | 216° |
| 2026-05-06 16:19 | 48.75961 | 8.31958 | 33880 ft | 422 kts | 216° |
| 2026-05-06 16:19 | 48.73590 | 8.29299 | 32724 ft | 421 kts | 215° |
| 2026-05-06 16:19 | 48.71224 | 8.26664 | 30988 ft | 426 kts | 214° |
| 2026-05-06 16:19 | 48.68798 | 8.23976 | 29217 ft | 438 kts | 214° |
| 2026-05-06 16:20 | 48.66327 | 8.21246 | 28162 ft | 439 kts | 214° |
| 2026-05-06 16:20 | 48.63882 | 8.18545 | 27523 ft | 430 kts | 214° |
| 2026-05-06 16:20 | 48.61507 | 8.15919 | 26754 ft | 427 kts | 214° |
| 2026-05-06 16:20 | 48.59118 | 8.13275 | 25989 ft | 424 kts | 214° |
| 2026-05-06 16:21 | 48.56743 | 8.10645 | 25248 ft | 421 kts | 214° |
| 2026-05-06 16:21 | 48.54384 | 8.08039 | 24520 ft | 419 kts | 215° |
| 2026-05-06 16:21 | 48.52032 | 8.05445 | 23799 ft | 418 kts | 215° |
| 2026-05-06 16:21 | 48.49686 | 8.02862 | 23040 ft | 416 kts | 215° |
| 2026-05-06 16:22 | 48.47356 | 8.00300 | 22338 ft | 412 kts | 214° |
| 2026-05-06 16:22 | 48.45075 | 7.97797 | 21691 ft | 408 kts | 214° |
| 2026-05-06 16:22 | 48.42786 | 7.95288 | 21065 ft | 404 kts | 214° |
| 2026-05-06 16:22 | 48.40530 | 7.92815 | 20467 ft | 399 kts | 214° |
| 2026-05-06 16:23 | 48.38248 | 7.90494 | 19901 ft | 392 kts | 207° |
| 2026-05-06 16:23 | 48.35785 | 7.88822 | 19347 ft | 386 kts | 198° |
| 2026-05-06 16:23 | 48.33188 | 7.87858 | 18780 ft | 382 kts | 188° |
| 2026-05-06 16:23 | 48.30566 | 7.87401 | 18233 ft | 378 kts | 186° |
| 2026-05-06 16:24 | 48.27960 | 7.86964 | 17639 ft | 374 kts | 186° |
| 2026-05-06 16:24 | 48.25423 | 7.86536 | 17099 ft | 370 kts | 186° |
| 2026-05-06 16:24 | 48.22867 | 7.86103 | 16548 ft | 367 kts | 187° |
| 2026-05-06 16:24 | 48.20342 | 7.85563 | 15983 ft | 365 kts | 194° |
| 2026-05-06 16:25 | 48.18013 | 7.84122 | 15407 ft | 362 kts | 212° |
| 2026-05-06 16:25 | 48.16104 | 7.81693 | 14832 ft | 360 kts | 230° |
| 2026-05-06 16:25 | 48.14788 | 7.78519 | 14228 ft | 360 kts | 247° |
| 2026-05-06 16:25 | 48.14179 | 7.74878 | 13600 ft | 361 kts | 263° |
| 2026-05-06 16:26 | 48.14036 | 7.71180 | 12924 ft | 359 kts | 265° |
| 2026-05-06 16:26 | 48.13904 | 7.67452 | 12284 ft | 356 kts | 265° |
| 2026-05-06 16:26 | 48.13770 | 7.63760 | 11640 ft | 354 kts | 265° |
| 2026-05-06 16:26 | 48.13632 | 7.60090 | 10985 ft | 352 kts | 265° |
| 2026-05-06 16:27 | 48.13434 | 7.56455 | 10536 ft | 343 kts | 258° |
| 2026-05-06 16:27 | 48.12671 | 7.53179 | 10411 ft | 326 kts | 241° |
| 2026-05-06 16:27 | 48.11338 | 7.50553 | 10288 ft | 311 kts | 224° |
| 2026-05-06 16:27 | 48.09626 | 7.48750 | 10168 ft | 299 kts | 207° |
| 2026-05-06 16:28 | 48.07706 | 7.47697 | 10039 ft | 288 kts | 199° |
| 2026-05-06 16:28 | 48.05819 | 7.46796 | 9840 ft | 281 kts | 199° |
| 2026-05-06 16:28 | 48.03950 | 7.45903 | 9775 ft | 282 kts | 199° |
| 2026-05-06 16:28 | 48.02081 | 7.45012 | 9285 ft | 284 kts | 200° |
| 2026-05-06 16:29 | 48.00185 | 7.44111 | 8752 ft | 286 kts | 199° |
| 2026-05-06 16:29 | 47.98284 | 7.43204 | 8306 ft | 285 kts | 200° |
| 2026-05-06 16:29 | 47.96406 | 7.42304 | 7861 ft | 284 kts | 199° |
| 2026-05-06 16:29 | 47.94550 | 7.41408 | 7378 ft | 283 kts | 200° |
| 2026-05-06 16:30 | 47.92669 | 7.40500 | 6883 ft | 283 kts | 199° |
| 2026-05-06 16:30 | 47.92037 | 7.40196 | 6714 ft | 280 kts | 199° |
| 2026-05-06 16:30 | 47.89059 | 7.38776 | 5956 ft | 259 kts | 200° |
| 2026-05-06 16:30 | 47.87957 | 7.38253 | 5870 ft | 243 kts | 199° |
| 2026-05-06 16:31 | 47.86411 | 7.37520 | 5746 ft | 225 kts | 201° |
| 2026-05-06 16:31 | 47.84924 | 7.36809 | 5341 ft | 228 kts | 201° |
| 2026-05-06 16:31 | 47.83352 | 7.36411 | 5029 ft | 231 kts | 181° |
| 2026-05-06 16:31 | 47.81802 | 7.36964 | 4885 ft | 228 kts | 160° |
| 2026-05-06 16:32 | 47.80394 | 7.37953 | 4790 ft | 219 kts | 159° |
| 2026-05-06 16:32 | 47.79036 | 7.38911 | 4639 ft | 213 kts | 159° |
| 2026-05-06 16:32 | 47.77695 | 7.39851 | 4384 ft | 213 kts | 159° |
| 2026-05-06 16:32 | 47.76369 | 7.40780 | 4085 ft | 214 kts | 159° |
| 2026-05-06 16:33 | 47.75016 | 7.41728 | 3801 ft | 214 kts | 159° |
| 2026-05-06 16:33 | 47.73698 | 7.42654 | 3530 ft | 203 kts | 159° |
| 2026-05-06 16:33 | 47.72469 | 7.43516 | 3267 ft | 187 kts | 160° |
| 2026-05-06 16:34 | 47.70345 | 7.45006 | 2802 ft | 151 kts | 161° |
| 2026-05-06 16:34 | 47.69417 | 7.45652 | 2592 ft | 144 kts | 161° |
| 2026-05-06 16:34 | 47.68521 | 7.46276 | 2409 ft | 141 kts | 161° |
| 2026-05-06 16:34 | 47.67642 | 7.46890 | 2214 ft | 138 kts | 162° |
| 2026-05-06 16:35 | 47.66772 | 7.47496 | 2032 ft | 137 kts | 162° |
| 2026-05-06 16:35 | 47.65925 | 7.48087 | 1840 ft | 135 kts | 162° |
| 2026-05-06 16:35 | 47.65059 | 7.48693 | 1656 ft | 139 kts | 160° |
| 2026-05-06 16:35 | 47.64194 | 7.49299 | 1483 ft | 137 kts | 156° |
| 2026-05-06 16:36 | 47.63327 | 7.49905 | 1259 ft | 140 kts | 155° |
| 2026-05-06 16:36 | 47.62436 | 7.50526 | 1064 ft | 143 kts | 154° |
| 2026-05-06 16:36 | 47.61520 | 7.51162 | 936 ft | 149 kts | 155° |
| 2026-05-06 16:36 | 47.60520 | 7.51857 | 1602 ft | 168 kts | 156° |
| 2026-05-06 16:37 | 47.59460 | 7.52738 | 2601 ft | 182 kts | 154° |
| 2026-05-06 16:37 | 47.58325 | 7.53760 | 3058 ft | 201 kts | 154° |
| 2026-05-06 16:37 | 47.57057 | 7.54872 | 3428 ft | 223 kts | 154° |
| 2026-05-06 16:37 | 47.55604 | 7.55589 | 4206 ft | 216 kts | 183° |
| 2026-05-06 16:38 | 47.54180 | 7.55139 | 5100 ft | 208 kts | 210° |
| 2026-05-06 16:38 | 47.53118 | 7.53760 | 5320 ft | 199 kts | 242° |
| 2026-05-06 16:38 | 47.52865 | 7.51729 | 5485 ft | 217 kts | 275° |
| 2026-05-06 16:38 | 47.53444 | 7.49663 | 5494 ft | 228 kts | 306° |
| 2026-05-06 16:39 | 47.54687 | 7.48162 | 5500 ft | 236 kts | 324° |
| 2026-05-06 16:39 | 47.56056 | 7.46837 | 5485 ft | 234 kts | 323° |
| 2026-05-06 16:39 | 47.57430 | 7.45539 | 5493 ft | 234 kts | 325° |
| 2026-05-06 16:39 | 47.58812 | 7.44251 | 5493 ft | 234 kts | 324° |
| 2026-05-06 16:40 | 47.59892 | 7.42574 | 5469 ft | 224 kts | 284° |
| 2026-05-06 16:40 | 47.59606 | 7.40476 | 5394 ft | 210 kts | 230° |
| 2026-05-06 16:40 | 47.58363 | 7.39289 | 5417 ft | 223 kts | 217° |
| 2026-05-06 16:40 | 47.57254 | 7.37696 | 5416 ft | 223 kts | 225° |
| 2026-05-06 16:41 | 47.56182 | 7.36022 | 5445 ft | 224 kts | 232° |
| 2026-05-06 16:41 | 47.55171 | 7.34257 | 5462 ft | 224 kts | 232° |
| 2026-05-06 16:41 | 47.54184 | 7.32458 | 5451 ft | 225 kts | 233° |
| 2026-05-06 16:41 | 47.53222 | 7.30644 | 5433 ft | 224 kts | 233° |
| 2026-05-06 16:42 | 47.52288 | 7.28837 | 5423 ft | 223 kts | 234° |
| 2026-05-06 16:42 | 47.51359 | 7.26991 | 5412 ft | 224 kts | 235° |
| 2026-05-06 16:42 | 47.50444 | 7.25124 | 5408 ft | 223 kts | 236° |
| 2026-05-06 16:42 | 47.49564 | 7.23227 | 5391 ft | 224 kts | 238° |
| 2026-05-06 16:43 | 47.48732 | 7.21282 | 5389 ft | 223 kts | 240° |
| 2026-05-06 16:43 | 47.47956 | 7.19299 | 5389 ft | 223 kts | 244° |
| 2026-05-06 16:43 | 47.47632 | 7.17102 | 5470 ft | 223 kts | 278° |
| 2026-05-06 16:43 | 47.48356 | 7.15124 | 5497 ft | 229 kts | 317° |
| 2026-05-06 16:44 | 47.49846 | 7.14282 | 5506 ft | 239 kts | 357° |
| 2026-05-06 16:44 | 47.51464 | 7.14934 | 5512 ft | 245 kts | 21° |
| 2026-05-06 16:44 | 47.53086 | 7.15571 | 5510 ft | 239 kts | 353° |
| 2026-05-06 16:44 | 47.54699 | 7.15080 | 5506 ft | 237 kts | 343° |
| 2026-05-06 16:45 | 47.56334 | 7.14644 | 5511 ft | 239 kts | 348° |
| 2026-05-06 16:45 | 47.57962 | 7.14305 | 5506 ft | 239 kts | 348° |
| 2026-05-06 16:45 | 47.59613 | 7.13959 | 5508 ft | 240 kts | 348° |
| 2026-05-06 16:45 | 47.61270 | 7.13614 | 5509 ft | 240 kts | 349° |
| 2026-05-06 16:46 | 47.62922 | 7.13279 | 5505 ft | 239 kts | 348° |
| 2026-05-06 16:46 | 47.64569 | 7.12970 | 5507 ft | 237 kts | 348° |
| 2026-05-06 16:46 | 47.66177 | 7.12815 | 5493 ft | 228 kts | 4° |
| 2026-05-06 16:46 | 47.67685 | 7.13360 | 5401 ft | 221 kts | 12° |
| 2026-05-06 16:47 | 47.69174 | 7.14052 | 5036 ft | 226 kts | 13° |
| 2026-05-06 16:47 | 47.70662 | 7.14881 | 4676 ft | 233 kts | 27° |
| 2026-05-06 16:47 | 47.71953 | 7.16328 | 4327 ft | 237 kts | 38° |
| 2026-05-06 16:47 | 47.73214 | 7.17921 | 4019 ft | 237 kts | 38° |
| 2026-05-06 16:48 | 47.74430 | 7.19479 | 3990 ft | 224 kts | 38° |
| 2026-05-06 16:48 | 47.75578 | 7.20951 | 3992 ft | 213 kts | 38° |
| 2026-05-06 16:48 | 47.76682 | 7.22388 | 3993 ft | 209 kts | 38° |
| 2026-05-06 16:48 | 47.77769 | 7.23812 | 3994 ft | 208 kts | 38° |
| 2026-05-06 16:49 | 47.78850 | 7.25230 | 4006 ft | 207 kts | 39° |
| 2026-05-06 16:49 | 47.79943 | 7.26632 | 3995 ft | 207 kts | 39° |
| 2026-05-06 16:49 | 47.80967 | 7.28144 | 3985 ft | 210 kts | 58° |
| 2026-05-06 16:49 | 47.81525 | 7.30114 | 4001 ft | 210 kts | 77° |
| 2026-05-06 16:50 | 47.81763 | 7.32250 | 3975 ft | 209 kts | 84° |
| 2026-05-06 16:50 | 47.81916 | 7.34399 | 3973 ft | 209 kts | 87° |
| 2026-05-06 16:50 | 47.81938 | 7.36553 | 3940 ft | 207 kts | 112° |
| 2026-05-06 16:50 | 47.81063 | 7.38060 | 3807 ft | 188 kts | 162° |
| 2026-05-06 16:51 | 47.79813 | 7.38640 | 3813 ft | 190 kts | 165° |
| 2026-05-06 16:51 | 47.78637 | 7.39315 | 3859 ft | 168 kts | 163° |
| 2026-05-06 16:51 | 47.77624 | 7.39940 | 3901 ft | 150 kts | 163° |
| 2026-05-06 16:51 | 47.76691 | 7.40581 | 3798 ft | 146 kts | 162° |
| 2026-05-06 16:52 | 47.75795 | 7.41216 | 3692 ft | 143 kts | 164° |
| 2026-05-06 16:52 | 47.74884 | 7.41810 | 3622 ft | 143 kts | 162° |
| 2026-05-06 16:52 | 47.73987 | 7.42432 | 3574 ft | 143 kts | 162° |
| 2026-05-06 16:52 | 47.73088 | 7.43076 | 3418 ft | 143 kts | 161° |
| 2026-05-06 16:53 | 47.72185 | 7.43734 | 3246 ft | 147 kts | 163° |
| 2026-05-06 16:53 | 47.71264 | 7.44379 | 3011 ft | 146 kts | 163° |
| 2026-05-06 16:53 | 47.70339 | 7.45003 | 2780 ft | 144 kts | 162° |
| 2026-05-06 16:53 | 47.69441 | 7.45620 | 2538 ft | 144 kts | 161° |
| 2026-05-06 16:54 | 47.68544 | 7.46250 | 2375 ft | 140 kts | 161° |
| 2026-05-06 16:54 | 47.67673 | 7.46856 | 2206 ft | 139 kts | 162° |
| 2026-05-06 16:54 | 47.66777 | 7.47485 | 2058 ft | 145 kts | 161° |
| 2026-05-06 16:54 | 47.65885 | 7.48115 | 1852 ft | 140 kts | 160° |
| 2026-05-06 16:55 | 47.64978 | 7.48749 | 1645 ft | 147 kts | 160° |
| 2026-05-06 16:55 | 47.64043 | 7.49393 | 1433 ft | 148 kts | 156° |
| 2026-05-06 16:55 | 47.63147 | 7.50025 | 1222 ft | 144 kts | 155° |
| 2026-05-06 16:55 | 47.62237 | 7.50661 | 1023 ft | 144 kts | 153° |
| 2026-05-06 16:56 | 47.61351 | 7.51282 | 878 ft | 133 kts | 154° |
| 2026-05-06 16:56 | 47.60667 | 7.51757 | 882 ft | 83 kts | 155° |
| 2026-05-06 16:56 | 47.60268 | 7.52033 | 887 ft | 49 kts | 155° |
| 2026-05-06 16:56 | 47.60112 | 7.52169 | 889 ft | 14 kts | 103° |
| 2026-05-06 16:57 | 47.60148 | 7.52306 | 887 ft | 15 kts | 65° |
| 2026-05-06 16:57 | 47.60141 | 7.52415 | 887 ft | 11 kts | 140° |
| 2026-05-06 16:57 | 47.60034 | 7.52491 | 887 ft | 19 kts | 154° |
| 2026-05-06 16:57 | 47.59909 | 7.52577 | 888 ft | 21 kts | 155° |
| 2026-05-06 16:58 | 47.59789 | 7.52662 | 890 ft | 18 kts | 154° |
| 2026-05-06 16:58 | 47.59674 | 7.52740 | 890 ft | 18 kts | 156° |
| 2026-05-06 16:58 | 47.59640 | 7.52834 | 893 ft | 4 kts | 54° |
| 2026-05-06 16:58 | 47.59659 | 7.52907 | 894 ft | 14 kts | 64° |
| 2026-05-06 16:59 | 47.59713 | 7.53023 | 894 ft | 14 kts | 21° |
| 2026-05-06 16:59 | 47.59745 | 7.53031 | 894 ft | 1 kts | 5° |
| 2026-05-06 16:59 | 47.59770 | 7.53033 | 894 ft | 7 kts | 6° |
| 2026-05-06 16:59 | 47.59835 | 7.53041 | 894 ft | 4 kts | 5° |
| 2026-05-06 17:00 | 47.59855 | 7.53043 | 894 ft | 2 kts | 5° |
| 2026-05-06 17:00 | 47.59861 | 7.53044 | 894 ft | 0 kts | 5° |